Time;durP1;ratioP1;P1;durP2;ratioP2;P2;SDS_P1;SDS_P2;PMS_P1;PMS_P2;Temp;Humidity;BMP_temperature;BMP_pressure;BME280_temperature;BME280_humidity;BME280_pressure;Samples;Min_cycle;Max_cycle;Signal;HPM_P1;HPM_P2
2023/03/28 00:01:15;;;;;;;0.10;0.10;;;-0.30;23.00;;;;;;5057911;28;20044;-87
2023/03/28 00:03:41;;;;;;;0.00;0.00;;;-0.40;1.00;;;;;;5075698;28;20045;-87
2023/03/28 00:06:15;;;;;;;0.55;0.55;;;-0.50;1.00;;;;;;5075733;28;20072;-87
2023/03/28 00:08:41;;;;;;;0.00;0.00;;;-0.50;99.90;;;;;;5076054;28;20055;-87
2023/03/28 00:11:10;;;;;;;0.25;0.25;;;-0.60;1.00;;;;;;5076431;28;20044;-87
2023/03/28 00:13:36;;;;;;;0.00;0.00;;;-0.70;99.90;;;;;;5075049;28;20041;-87
2023/03/28 00:16:08;;;;;;;0.00;0.00;;;-0.70;99.90;;;;;;5076289;28;20075;-87
2023/03/28 00:18:37;;;;;;;0.00;0.00;;;-0.80;99.90;;;;;;5075956;28;20047;-87
2023/03/28 00:21:06;;;;;;;0.10;0.10;;;-0.90;99.90;;;;;;5075625;28;20055;-88
2023/03/28 00:23:34;;;;;;;0.00;0.00;;;-0.90;99.90;;;;;;5074746;28;20044;-87
2023/03/28 00:26:12;;;;;;;0.25;0.25;;;-0.90;99.90;;;;;;5055993;28;20037;-87
2023/03/28 00:28:38;;;;;;;0.05;0.05;;;-0.90;99.90;;;;;;5055701;28;20415;-87
2023/03/28 00:31:07;;;;;;;0.00;0.00;;;-0.90;99.90;;;;;;5054751;28;20045;-87
2023/03/28 00:33:33;;;;;;;0.08;0.08;;;-0.90;99.90;;;;;;5056160;28;20067;-89
2023/03/28 00:35:59;;;;;;;0.55;0.55;;;-0.90;99.90;;;;;;5055527;28;20045;-87
2023/03/28 00:38:26;;;;;;;0.10;0.10;;;-0.90;99.90;;;;;;5035847;28;20109;-87
2023/03/28 00:40:56;;;;;;;0.10;0.10;;;-0.90;99.90;;;;;;5054999;28;20155;-88
2023/03/28 00:43:45;;;;;;;0.10;0.10;;;-0.90;36.40;;;;;;5070538;28;20060;-88
2023/03/28 00:46:25;;;;;;;1.27;1.17;;;-0.80;99.90;;;;;;5075136;28;20080;-88
2023/03/28 00:49:12;;;;;;;0.00;0.00;;;-0.80;88.60;;;;;;5074974;28;20048;-88
2023/03/28 00:51:43;;;;;;;0.55;0.55;;;-0.80;1.00;;;;;;5075487;28;20040;-88
2023/03/28 00:54:12;;;;;;;2.63;1.10;;;-0.80;1.00;;;;;;5075316;28;20047;-88
2023/03/28 00:56:41;;;;;;;0.05;0.05;;;-0.80;1.00;;;;;;5075463;28;20054;-88
2023/03/28 00:59:11;;;;;;;0.00;0.00;;;-0.70;1.00;;;;;;5075373;28;20055;-87
2023/03/28 01:01:37;;;;;;;0.10;0.10;;;-0.70;25.10;;;;;;5073994;28;20052;-87
2023/03/28 01:04:05;;;;;;;0.25;0.25;;;-0.70;1.00;;;;;;5075205;28;20059;-88
2023/03/28 01:06:39;;;;;;;0.20;0.20;;;-0.70;1.00;;;;;;5075578;28;20114;-88
2023/03/28 01:09:06;;;;;;;3.30;1.70;;;-0.70;99.90;;;;;;5070522;28;20048;-87
2023/03/28 01:11:36;;;;;;;0.00;0.00;;;-0.70;99.90;;;;;;5055754;28;20772;-87
2023/03/28 01:14:05;;;;;;;0.00;0.00;;;-0.70;99.90;;;;;;5054900;28;20082;-87
2023/03/28 01:16:31;;;;;;;0.00;0.00;;;-0.70;99.90;;;;;;5051955;28;20586;-87
2023/03/28 01:19:02;;;;;;;0.00;0.00;;;-0.80;99.90;;;;;;5053159;28;20045;-88
2023/03/28 01:21:53;;;;;;;0.00;0.00;;;-0.80;99.90;;;;;;5053577;28;20059;-87
2023/03/28 01:25:06;;;;;;;0.00;0.00;;;-0.90;1.00;;;;;;5052001;28;20064;-88
2023/03/28 01:27:44;;;;;;;0.10;0.10;;;-0.90;1.00;;;;;;5051961;28;20060;-88
2023/03/28 01:30:35;;;;;;;0.05;0.05;;;-0.90;1.00;;;;;;5053369;28;20068;-88
2023/03/28 01:33:10;;;;;;;0.90;0.90;;;-1.00;1.00;;;;;;5052010;28;20049;-88
2023/03/28 01:35:42;;;;;;;0.00;0.00;;;-1.00;1.00;;;;;;5052402;28;20129;-88
2023/03/28 01:38:31;;;;;;;2.85;2.65;;;-1.10;1.00;;;;;;5053934;28;20101;-88
2023/03/28 01:41:18;;;;;;;0.80;0.80;;;-1.20;1.00;;;;;;5050133;28;20057;-88
2023/03/28 01:43:52;;;;;;;0.00;0.00;;;-1.20;1.00;;;;;;5052768;28;20391;-89
2023/03/28 01:46:34;;;;;;;0.10;0.10;;;-1.30;99.90;;;;;;5054980;28;20471;-89
2023/03/28 01:49:13;;;;;;;0.00;0.00;;;-1.20;1.00;;;;;;5052907;28;20572;-89
2023/03/28 01:51:52;;;;;;;1.05;0.70;;;-1.30;1.00;;;;;;5054622;28;20490;-89
2023/03/28 01:54:28;;;;;;;0.08;0.08;;;-1.20;49.60;;;;;;5054618;28;20041;-89
2023/03/28 01:56:57;;;;;;;0.00;0.00;;;-1.30;62.10;;;;;;5053012;28;20084;-89
2023/03/28 01:59:36;;;;;;;0.00;0.00;;;-1.30;1.00;;;;;;5052699;28;20071;-89
2023/03/28 02:02:37;;;;;;;0.00;0.00;;;-1.30;9.50;;;;;;5053604;28;20048;-89
2023/03/28 02:05:10;;;;;;;0.90;0.90;;;-1.40;1.00;;;;;;5051970;28;20049;-89
2023/03/28 02:07:38;;;;;;;0.00;0.00;;;-1.30;72.90;;;;;;5052938;28;20562;-89
2023/03/28 02:10:07;;;;;;;0.00;0.00;;;-1.30;92.50;;;;;;5053465;28;20509;-89
2023/03/28 02:12:39;;;;;;;0.10;0.10;;;-1.20;99.90;;;;;;5055157;28;20045;-89
2023/03/28 02:15:09;;;;;;;0.10;0.10;;;-1.20;97.00;;;;;;5054610;28;20049;-89
2023/03/28 02:17:41;;;;;;;0.05;0.05;;;-1.20;20.80;;;;;;5053772;28;20080;-90
2023/03/28 02:20:11;;;;;;;0.08;0.08;;;-1.00;99.90;;;;;;5055582;28;20499;-89
2023/03/28 02:22:40;;;;;;;0.05;0.05;;;-1.00;99.90;;;;;;5054338;28;20049;-89
2023/03/28 02:25:06;;;;;;;0.10;0.10;;;-1.10;99.90;;;;;;5037370;28;20495;-89
2023/03/28 02:27:35;;;;;;;0.00;0.00;;;-1.10;99.90;;;;;;5054394;28;20048;-89
2023/03/28 02:30:01;;;;;;;0.13;0.13;;;-1.00;99.90;;;;;;5054712;28;20045;-89
2023/03/28 02:32:27;;;;;;;0.00;0.00;;;-1.00;99.90;;;;;;5056401;28;20056;-89
2023/03/28 02:34:54;;;;;;;0.00;0.00;;;-1.10;99.90;;;;;;5058855;28;20045;-89
2023/03/28 02:37:38;;;;;;;0.52;0.52;;;-1.10;99.90;;;;;;5059785;28;20084;-89
2023/03/28 02:40:39;;;;;;;0.00;0.00;;;-1.00;99.90;;;;;;5059117;28;20135;-90
2023/03/28 02:43:36;;;;;;;0.10;0.10;;;-0.90;99.90;;;;;;5057676;28;20041;-89
2023/03/28 02:46:16;;;;;;;0.10;0.10;;;-1.00;99.90;;;;;;5059102;28;20048;-89
2023/03/28 02:49:04;;;;;;;0.08;0.08;;;-1.00;99.90;;;;;;5058442;28;20045;-89
2023/03/28 02:51:39;;;;;;;0.03;0.03;;;-1.00;99.90;;;;;;5058196;28;20053;-89
2023/03/28 02:54:22;;;;;;;1.17;1.08;;;-1.10;99.90;;;;;;5056591;28;20418;-89
2023/03/28 02:57:00;;;;;;;0.00;0.00;;;-1.20;99.90;;;;;;5058209;28;20099;-89
2023/03/28 02:59:32;;;;;;;0.00;0.00;;;-1.20;99.90;;;;;;5058706;28;20269;-89
2023/03/28 03:02:00;;;;;;;0.15;0.15;;;-1.30;99.90;;;;;;5055949;28;20136;-89
2023/03/28 03:04:26;;;;;;;0.00;0.00;;;-1.30;99.90;;;;;;5058424;28;20060;-89
2023/03/28 03:06:52;;;;;;;0.13;0.13;;;-1.30;99.90;;;;;;5057539;28;20041;-89
2023/03/28 03:09:17;;;;;;;0.00;0.00;;;-1.30;99.90;;;;;;5040060;28;20056;-90
2023/03/28 03:11:43;;;;;;;0.03;0.03;;;-1.30;99.90;;;;;;5057853;28;20090;-90
2023/03/28 03:14:09;;;;;;;0.10;0.10;;;-1.30;99.90;;;;;;5058098;28;20678;-90
2023/03/28 03:16:37;;;;;;;0.00;0.00;;;-1.30;99.90;;;;;;5058911;28;20044;-89
2023/03/28 03:19:03;;;;;;;0.08;0.08;;;-1.30;99.90;;;;;;5056988;28;20053;-89
2023/03/28 03:21:29;;;;;;;0.00;0.00;;;-1.30;99.90;;;;;;5056041;28;20127;-90
2023/03/28 03:23:55;;;;;;;1.05;0.65;;;-1.40;99.90;;;;;;5057434;28;20111;-90
2023/03/28 03:26:21;;;;;;;0.10;0.10;;;-1.40;99.90;;;;;;5057172;28;20080;-89
2023/03/28 03:28:48;;;;;;;0.22;0.22;;;-1.40;99.90;;;;;;5039416;28;20072;-89
2023/03/28 03:31:16;;;;;;;0.10;0.10;;;-1.50;99.90;;;;;;5055974;28;20094;-89
2023/03/28 03:33:42;;;;;;;0.00;0.00;;;-1.60;99.90;;;;;;5056465;28;20052;-90
2023/03/28 03:36:11;;;;;;;0.10;0.10;;;-1.60;99.90;;;;;;5055288;28;20056;-89
2023/03/28 03:38:37;;;;;;;0.00;0.00;;;-1.60;99.90;;;;;;5057398;28;20049;-90
2023/03/28 03:41:03;;;;;;;0.10;0.10;;;-1.60;99.90;;;;;;5057224;28;20045;-89
2023/03/28 03:43:28;;;;;;;0.10;0.10;;;-1.60;99.90;;;;;;5055221;28;20067;-90
2023/03/28 03:45:58;;;;;;;0.00;0.00;;;-1.70;99.90;;;;;;5056039;28;20056;-89
2023/03/28 03:48:24;;;;;;;0.00;0.00;;;-1.70;99.90;;;;;;5054603;28;20047;-89
2023/03/28 03:50:50;;;;;;;0.45;0.45;;;-1.80;99.90;;;;;;5054815;28;20363;-90
2023/03/28 03:53:16;;;;;;;0.00;0.00;;;-1.80;99.90;;;;;;5055629;28;20044;-90
2023/03/28 03:55:42;;;;;;;0.10;0.10;;;-1.90;99.90;;;;;;5054285;28;20137;-90
2023/03/28 03:58:07;;;;;;;0.00;0.00;;;-1.90;99.90;;;;;;5055182;28;20113;-90
2023/03/28 04:00:33;;;;;;;0.00;0.00;;;-1.90;99.90;;;;;;5054694;28;20112;-89
2023/03/28 04:02:59;;;;;;;0.10;0.10;;;-2.00;99.90;;;;;;5056179;28;20406;-90
2023/03/28 04:05:25;;;;;;;0.20;0.20;;;-1.90;99.90;;;;;;5054321;28;20067;-90
2023/03/28 04:07:51;;;;;;;0.55;0.55;;;-2.00;99.90;;;;;;5055882;28;20267;-90
2023/03/28 04:10:17;;;;;;;0.00;0.00;;;-2.00;99.90;;;;;;5055590;28;20037;-90
2023/03/28 04:12:42;;;;;;;0.08;0.08;;;-2.00;99.90;;;;;;5055810;28;20045;-90
2023/03/28 04:15:09;;;;;;;0.05;0.05;;;-2.10;99.90;;;;;;5056036;28;20051;-90
2023/03/28 04:17:35;;;;;;;0.10;0.10;;;-2.20;99.90;;;;;;5055684;28;20053;-89
2023/03/28 04:20:10;;;;;;;0.10;0.10;;;-2.20;99.90;;;;;;5068894;28;20108;-89
2023/03/28 04:22:36;;;;;;;0.15;0.15;;;-2.30;99.90;;;;;;5072669;28;20044;-89
2023/03/28 04:25:03;;;;;;;0.00;0.00;;;-2.30;99.90;;;;;;5071537;28;20565;-90
2023/03/28 04:27:30;;;;;;;0.10;0.10;;;-2.40;99.90;;;;;;5072915;28;20021;-90
2023/03/28 04:29:56;;;;;;;0.08;0.08;;;-2.30;99.90;;;;;;5060759;28;20104;-89
2023/03/28 04:32:23;;;;;;;0.00;0.00;;;-2.30;99.90;;;;;;5055512;28;20101;-89
2023/03/28 04:34:52;;;;;;;0.10;0.10;;;-2.20;99.90;;;;;;5055972;28;20067;-89
2023/03/28 04:37:18;;;;;;;0.08;0.08;;;-2.10;99.90;;;;;;5055892;28;20049;-89
2023/03/28 04:39:46;;;;;;;0.00;0.00;;;-2.10;99.90;;;;;;5062841;28;20071;-89
2023/03/28 04:42:15;;;;;;;0.10;0.10;;;-2.00;99.90;;;;;;5059217;28;20059;-89
2023/03/28 04:44:42;;;;;;;0.00;0.00;;;-1.90;99.90;;;;;;5053949;28;20049;-89
2023/03/28 04:47:10;;;;;;;2.20;1.30;;;-1.90;99.90;;;;;;5055052;28;20063;-89
2023/03/28 04:49:39;;;;;;;0.00;0.00;;;-1.80;99.90;;;;;;5054478;28;20072;-89
2023/03/28 04:52:05;;;;;;;0.00;0.00;;;-1.80;99.90;;;;;;5052794;28;20037;-89
2023/03/28 04:54:30;;;;;;;0.10;0.10;;;-1.90;99.90;;;;;;5054103;28;20082;-89
2023/03/28 04:56:56;;;;;;;0.00;0.00;;;-1.80;99.90;;;;;;5053606;28;20040;-89
2023/03/28 04:59:22;;;;;;;0.10;0.10;;;-1.80;99.90;;;;;;5055417;28;20045;-90
2023/03/28 05:01:48;;;;;;;0.00;0.00;;;-1.80;99.90;;;;;;5053945;28;20513;-89
2023/03/28 05:04:17;;;;;;;0.10;0.10;;;-1.80;99.90;;;;;;5054538;28;20136;-89
2023/03/28 05:06:48;;;;;;;0.10;0.10;;;-1.80;99.90;;;;;;5052569;28;20056;-89
2023/03/28 05:09:15;;;;;;;0.10;0.10;;;-1.90;99.90;;;;;;5053554;28;20052;-89
2023/03/28 05:11:41;;;;;;;7.03;3.40;;;-1.80;99.90;;;;;;5073058;28;20044;-89
2023/03/28 05:14:07;;;;;;;0.00;0.00;;;-1.90;99.90;;;;;;5072815;28;20186;-89
2023/03/28 05:16:33;;;;;;;0.00;0.00;;;-1.90;99.90;;;;;;5070102;28;20833;-89
2023/03/28 05:18:58;;;;;;;0.10;0.10;;;-0.80;99.90;;;;;;5071591;28;20045;-89
2023/03/28 05:21:24;;;;;;;0.00;0.00;;;-1.90;99.90;;;;;;5071174;28;20052;-89
2023/03/28 05:23:50;;;;;;;0.10;0.10;;;-1.90;99.90;;;;;;5070440;28;20051;-89
2023/03/28 05:26:16;;;;;;;0.08;0.08;;;-2.00;99.90;;;;;;5068867;28;20087;-89
2023/03/28 05:28:42;;;;;;;0.00;0.00;;;-2.00;99.90;;;;;;5069934;28;20525;-88
2023/03/28 05:31:10;;;;;;;0.00;0.00;;;-2.00;99.90;;;;;;5055223;28;20080;-88
2023/03/28 05:33:35;;;;;;;0.10;0.10;;;-2.00;99.90;;;;;;5066208;28;20048;-88
2023/03/28 05:36:01;;;;;;;0.00;0.00;;;-2.00;99.90;;;;;;5053928;28;20048;-89
2023/03/28 05:38:32;;;;;;;0.05;0.05;;;-2.10;99.90;;;;;;5052071;28;20052;-88
2023/03/28 05:40:58;;;;;;;0.03;0.03;;;-2.10;99.90;;;;;;5052200;28;20053;-89
2023/03/28 05:43:24;;;;;;;0.00;0.00;;;-2.10;99.90;;;;;;5055075;28;20084;-88
2023/03/28 05:45:50;;;;;;;0.10;0.10;;;-2.10;99.90;;;;;;5054157;28;20053;-89
2023/03/28 05:48:16;;;;;;;0.00;0.00;;;-2.00;99.90;;;;;;5054232;28;20063;-88
2023/03/28 05:50:43;;;;;;;0.00;0.00;;;-1.90;99.90;;;;;;5053419;28;20400;-88
2023/03/28 05:53:09;;;;;;;0.55;0.55;;;-1.80;99.90;;;;;;5050935;28;20281;-88
2023/03/28 05:55:37;;;;;;;0.00;0.00;;;-1.60;99.90;;;;;;5034310;28;20045;-88
2023/03/28 05:58:05;;;;;;;0.00;0.00;;;-1.40;99.90;;;;;;5052334;28;20049;-89
2023/03/28 06:00:31;;;;;;;0.00;0.00;;;-1.30;99.90;;;;;;5048951;28;20045;-88
2023/03/28 06:02:57;;;;;;;0.10;0.10;;;-1.10;99.90;;;;;;5044303;28;20436;-88
2023/03/28 06:05:23;;;;;;;0.47;0.47;;;-0.90;99.90;;;;;;5043966;28;20052;-88
2023/03/28 06:07:50;;;;;;;0.00;0.00;;;-0.80;99.90;;;;;;5045425;28;20052;-88
2023/03/28 06:10:16;;;;;;;0.00;0.00;;;-0.60;99.90;;;;;;5047717;28;20085;-88
2023/03/28 06:12:41;;;;;;;0.73;0.73;;;-0.40;99.90;;;;;;5047348;28;20206;-88
2023/03/28 06:15:08;;;;;;;0.00;0.00;;;-0.20;99.90;;;;;;5047580;28;20556;-89
2023/03/28 06:17:34;;;;;;;0.47;0.45;;;0.10;99.90;;;;;;5045520;28;20060;-88
2023/03/28 06:20:00;;;;;;;0.00;0.00;;;0.40;99.90;;;;;;5046193;28;20491;-89
2023/03/28 06:22:26;;;;;;;0.00;0.00;;;0.80;99.90;;;;;;5047252;28;20076;-89
2023/03/28 06:24:52;;;;;;;0.80;0.57;;;1.80;99.90;;;;;;5046364;28;20048;-89
2023/03/28 06:27:18;;;;;;;0.00;0.00;;;2.70;99.90;;;;;;5045642;28;20124;-89
2023/03/28 06:29:43;;;;;;;0.00;0.00;;;3.60;99.90;;;;;;5047927;28;20105;-89
2023/03/28 06:32:11;;;;;;;0.08;0.08;;;4.10;99.90;;;;;;5044895;28;20048;-89
2023/03/28 06:34:37;;;;;;;0.20;0.20;;;4.60;1.00;;;;;;5043960;28;20151;-89
2023/03/28 06:37:02;;;;;;;0.00;0.00;;;4.80;99.90;;;;;;5045831;28;20052;-89
2023/03/28 06:39:28;;;;;;;0.00;0.00;;;4.50;1.00;;;;;;5046224;28;20441;-89
2023/03/28 06:41:54;;;;;;;0.00;0.00;;;4.10;34.40;;;;;;5047256;28;20037;-89
2023/03/28 06:44:19;;;;;;;0.00;0.00;;;3.80;36.40;;;;;;5046341;28;20073;-89
2023/03/28 06:46:45;;;;;;;0.00;0.00;;;3.60;99.90;;;;;;5046128;28;20049;-89
2023/03/28 06:49:11;;;;;;;0.00;0.00;;;3.50;99.90;;;;;;5047180;28;20540;-89
2023/03/28 06:51:36;;;;;;;0.22;0.20;;;3.40;1.00;;;;;;5045543;28;20052;-89
2023/03/28 06:54:02;;;;;;;29.58;3.08;;;3.40;1.00;;;;;;5046383;28;20088;-90
2023/03/28 06:56:28;;;;;;;0.00;0.00;;;3.40;6.40;;;;;;5047796;28;20041;-89
2023/03/28 06:58:54;;;;;;;0.00;0.00;;;3.40;30.00;;;;;;5045715;28;20081;-89
2023/03/28 07:01:19;;;;;;;0.00;0.00;;;3.50;90.90;;;;;;5046761;28;20140;-89
2023/03/28 07:03:45;;;;;;;0.00;0.00;;;3.60;89.20;;;;;;5048444;28;20052;-89
2023/03/28 07:06:11;;;;;;;1.20;0.50;;;3.70;1.00;;;;;;5046872;28;20550;-89
2023/03/28 07:08:37;;;;;;;0.00;0.00;;;4.30;1.00;;;;;;5029458;28;20075;-89
2023/03/28 07:11:03;;;;;;;0.00;0.00;;;3.90;99.90;;;;;;5047854;28;20071;-89
2023/03/28 07:13:29;;;;;;;0.30;0.30;;;4.00;99.90;;;;;;5045933;28;20487;-89
2023/03/28 07:16:04;;;;;;;0.63;0.63;;;4.10;1.00;;;;;;5045585;28;20045;-88
2023/03/28 07:18:33;;;;;;;0.00;0.00;;;4.20;99.90;;;;;;5045508;28;20049;-89
2023/03/28 07:21:11;;;;;;;0.00;0.00;;;5.30;99.90;;;;;;5046729;28;20120;-89
2023/03/28 07:23:40;;;;;;;0.70;0.70;;;4.30;99.90;;;;;;5044395;28;20115;-89
2023/03/28 07:26:07;;;;;;;0.77;0.50;;;4.50;99.90;;;;;;5045445;28;20053;-89
2023/03/28 07:28:33;;;;;;;0.00;0.00;;;4.50;90.00;;;;;;5044853;28;20053;-89
2023/03/28 07:31:00;;;;;;;0.00;0.00;;;4.50;92.10;;;;;;5046339;28;20044;-89
2023/03/28 07:33:27;;;;;;;2.50;0.40;;;4.50;7.30;;;;;;5044169;28;20056;-88
2023/03/28 07:35:53;;;;;;;0.10;0.10;;;4.40;32.50;;;;;;5043765;28;20115;-89
2023/03/28 07:38:19;;;;;;;0.10;0.10;;;4.40;7.10;;;;;;5044912;28;20088;-88
2023/03/28 07:40:45;;;;;;;0.73;0.30;;;5.20;1.00;;;;;;5027248;28;20081;-89
2023/03/28 07:43:11;;;;;;;0.03;0.03;;;4.30;88.80;;;;;;5045783;28;20075;-89
2023/03/28 07:45:36;;;;;;;0.00;0.00;;;4.30;19.90;;;;;;5047109;28;20053;-88
2023/03/28 07:48:03;;;;;;;1.35;1.15;;;5.30;99.90;;;;;;5044934;28;20044;-88
2023/03/28 07:50:30;;;;;;;0.00;0.00;;;4.20;99.90;;;;;;5027115;28;20134;-88
2023/03/28 07:52:59;;;;;;;0.63;0.63;;;4.30;99.90;;;;;;5044250;28;20037;-88
2023/03/28 07:55:26;;;;;;;0.70;0.63;;;4.40;1.00;;;;;;5045073;28;20406;-88
2023/03/28 07:57:53;;;;;;;0.00;0.00;;;4.50;1.00;;;;;;5043047;28;20427;-88
2023/03/28 08:00:22;;;;;;;4.50;0.47;;;4.60;99.90;;;;;;5043783;28;20567;-88
2023/03/28 08:02:49;;;;;;;0.00;0.00;;;4.70;99.90;;;;;;5043030;28;20558;-88
2023/03/28 08:05:15;;;;;;;0.00;0.00;;;4.70;99.90;;;;;;5043033;28;20063;-88
2023/03/28 08:07:44;;;;;;;0.00;0.00;;;4.80;99.90;;;;;;5044255;28;20045;-88
2023/03/28 08:10:11;;;;;;;0.00;0.00;;;5.00;76.30;;;;;;5043032;28;20123;-88
2023/03/28 08:12:39;;;;;;;0.00;0.00;;;5.10;1.00;;;;;;5040544;28;20056;-88
2023/03/28 08:15:08;;;;;;;0.00;0.00;;;5.20;1.00;;;;;;5042456;28;20143;-88
2023/03/28 08:17:34;;;;;;;2.40;1.10;;;5.30;1.00;;;;;;5044455;28;20120;-88
2023/03/28 08:19:59;;;;;;;0.00;0.00;;;5.30;1.00;;;;;;5042794;28;20056;-88
2023/03/28 08:22:25;;;;;;;0.00;0.00;;;5.50;99.90;;;;;;5043991;28;20102;-88
2023/03/28 08:24:51;;;;;;;0.03;0.03;;;5.60;99.90;;;;;;5042424;28;20109;-88
2023/03/28 08:27:17;;;;;;;0.00;0.00;;;5.80;99.90;;;;;;5044023;28;20169;-88
2023/03/28 08:29:43;;;;;;;0.00;0.00;;;6.20;99.90;;;;;;5042150;28;20513;-88
2023/03/28 08:32:09;;;;;;;0.00;0.00;;;6.60;99.90;;;;;;5048753;28;20120;-89
2023/03/28 08:34:35;;;;;;;0.15;0.15;;;7.00;99.90;;;;;;5043345;28;20071;-88
2023/03/28 08:37:00;;;;;;;0.00;0.00;;;7.50;99.90;;;;;;5040648;28;20479;-88
2023/03/28 08:39:26;;;;;;;0.00;0.00;;;7.70;99.90;;;;;;5042658;28;20124;-87
2023/03/28 08:41:52;;;;;;;0.13;0.08;;;7.90;99.90;;;;;;5041665;28;20384;-88
2023/03/28 08:44:48;;;;;;;0.00;0.00;;;8.30;99.90;;;;;;5043213;28;20048;-88
2023/03/28 08:47:31;;;;;;;0.00;0.00;;;8.60;81.60;;;;;;5041461;28;20053;-88
2023/03/28 08:50:14;;;;;;;0.00;0.00;;;8.70;14.40;;;;;;5042754;28;20357;-88
2023/03/28 08:52:41;;;;;;;0.00;0.00;;;8.60;15.10;;;;;;5047315;28;20517;-87
2023/03/28 08:55:27;;;;;;;0.00;0.00;;;8.40;1.00;;;;;;5062196;28;20051;-88
2023/03/28 08:57:55;;;;;;;0.00;0.00;;;8.20;1.00;;;;;;5062772;28;20048;-88
2023/03/28 09:00:28;;;;;;;0.57;0.57;;;8.10;1.00;;;;;;5062227;28;20124;-87
2023/03/28 09:02:54;;;;;;;0.00;0.00;;;7.80;1.00;;;;;;5051756;28;20048;-87
2023/03/28 09:05:33;;;;;;;0.00;0.00;;;7.80;1.00;;;;;;5042697;28;20119;-88
2023/03/28 09:08:27;;;;;;;0.10;0.10;;;8.00;1.00;;;;;;5040949;28;20988;-88
2023/03/28 09:11:23;;;;;;;0.10;0.10;;;8.20;1.00;;;;;;5037096;28;20063;-88
2023/03/28 09:13:52;;;;;;;1.45;1.35;;;8.70;1.00;;;;;;5042026;28;20048;-87
2023/03/28 09:16:50;;;;;;;0.10;0.10;;;8.90;1.00;;;;;;5042246;28;20185;-87
2023/03/28 09:19:43;;;;;;;0.00;0.00;;;9.10;1.00;;;;;;5028553;28;20067;-87
2023/03/28 09:22:42;;;;;;;0.00;0.00;;;9.60;1.00;;;;;;5040543;28;20391;-88
2023/03/28 09:25:35;;;;;;;0.00;0.00;;;9.60;1.00;;;;;;5044472;28;20063;-88
2023/03/28 09:28:27;;;;;;;0.10;0.10;;;9.90;1.00;;;;;;5042207;28;20052;-88
2023/03/28 09:30:54;;;;;;;0.90;0.28;;;10.90;1.00;;;;;;5042134;28;20509;-88
2023/03/28 09:33:27;;;;;;;0.00;0.00;;;10.90;1.00;;;;;;5042474;28;20393;-87
2023/03/28 09:35:56;;;;;;;0.00;0.00;;;10.70;1.00;;;;;;5043903;28;20045;-87
2023/03/28 09:38:32;;;;;;;0.00;0.00;;;10.80;1.00;;;;;;5043489;28;20084;-87
2023/03/28 09:41:02;;;;;;;0.00;0.00;;;10.40;1.00;;;;;;5041806;28;20056;-87
2023/03/28 09:43:39;;;;;;;0.93;0.70;;;10.30;1.00;;;;;;5043352;28;20078;-88
2023/03/28 09:46:09;;;;;;;0.85;0.40;;;10.70;1.00;;;;;;5041860;28;20047;-86
2023/03/28 09:48:37;;;;;;;0.00;0.00;;;10.90;1.00;;;;;;5041434;28;20503;-87
2023/03/28 09:51:05;;;;;;;0.03;0.03;;;11.20;1.00;;;;;;5039565;28;20057;-87
2023/03/28 09:53:32;;;;;;;0.30;0.22;;;11.20;1.00;;;;;;5041369;28;20392;-87
2023/03/28 09:56:23;;;;;;;0.00;0.00;;;11.10;1.00;;;;;;5042199;28;20414;-87
2023/03/28 09:58:54;;;;;;;0.55;0.55;;;10.90;1.00;;;;;;5041352;28;20510;-86
2023/03/28 10:01:35;;;;;;;0.55;0.45;;;10.60;1.00;;;;;;5042986;28;20084;-87
2023/03/28 10:04:01;;;;;;;0.00;0.00;;;10.80;1.00;;;;;;5042594;28;20424;-86
2023/03/28 10:06:30;;;;;;;0.00;0.00;;;10.70;1.00;;;;;;5042642;28;20045;-87
2023/03/28 10:09:21;;;;;;;1.17;1.02;;;10.90;1.00;;;;;;5042518;28;20045;-86
2023/03/28 10:11:53;;;;;;;0.00;0.00;;;11.50;1.00;;;;;;5035913;28;20136;-86
2023/03/28 10:14:38;;;;;;;0.00;0.00;;;10.50;1.00;;;;;;5039230;28;20088;-87
2023/03/28 10:17:06;;;;;;;0.00;0.00;;;10.10;1.00;;;;;;5040554;28;20091;-86
2023/03/28 10:19:36;;;;;;;0.38;0.38;;;10.10;1.00;;;;;;5038830;28;20121;-86
2023/03/28 10:22:29;;;;;;;0.00;0.00;;;10.30;1.00;;;;;;5022631;28;20406;-86
2023/03/28 10:24:55;;;;;;;0.00;0.00;;;10.50;1.00;;;;;;5040753;28;20053;-86
2023/03/28 10:27:24;;;;;;;0.00;0.00;;;11.40;1.00;;;;;;5039388;28;20041;-86
2023/03/28 10:29:52;;;;;;;0.00;0.00;;;11.50;1.00;;;;;;5038895;28;20094;-87
2023/03/28 10:32:29;;;;;;;0.00;0.00;;;12.10;1.00;;;;;;5038620;28;20060;-86
2023/03/28 10:35:16;;;;;;;0.22;0.22;;;11.10;1.00;;;;;;5040827;28;20533;-86
2023/03/28 10:37:45;;;;;;;0.22;0.20;;;11.10;1.00;;;;;;5040675;28;20151;-86
2023/03/28 10:40:31;;;;;;;0.00;0.00;;;11.00;1.00;;;;;;5053975;28;20448;-86
2023/03/28 10:42:58;;;;;;;0.15;0.10;;;10.70;1.00;;;;;;5060465;28;20036;-86
2023/03/28 10:45:38;;;;;;;0.10;0.10;;;10.40;99.90;;;;;;5061615;28;20098;-86
2023/03/28 10:48:14;;;;;;;0.00;0.00;;;10.20;99.90;;;;;;5059596;28;20059;-87
2023/03/28 10:50:44;;;;;;;0.00;0.00;;;10.20;99.90;;;;;;5040760;28;20055;-86
2023/03/28 10:53:34;;;;;;;1.77;0.90;;;10.00;99.90;;;;;;5040610;28;20053;-86
2023/03/28 10:56:06;;;;;;;0.00;0.00;;;9.80;1.00;;;;;;5043125;28;20063;-86
2023/03/28 10:58:38;;;;;;;0.08;0.08;;;9.50;99.90;;;;;;5044722;28;20059;-87
2023/03/28 11:01:11;;;;;;;0.00;0.00;;;9.60;99.90;;;;;;5044532;28;20477;-86
2023/03/28 11:04:04;;;;;;;0.00;0.00;;;9.90;99.90;;;;;;5043504;28;20408;-86
2023/03/28 11:06:48;;;;;;;0.00;0.00;;;10.30;1.00;;;;;;5046304;28;20052;-86
2023/03/28 11:09:29;;;;;;;0.00;0.00;;;10.70;99.90;;;;;;5048799;28;20060;-85
2023/03/28 11:12:44;;;;;;;0.70;0.22;;;10.60;99.90;;;;;;5048728;28;20067;-86
2023/03/28 11:15:30;;;;;;;0.00;0.00;;;10.60;1.00;;;;;;5030493;28;20068;-86
2023/03/28 11:18:15;;;;;;;0.00;0.00;;;10.60;99.90;;;;;;5050298;28;20079;-86
2023/03/28 11:21:09;;;;;;;0.00;0.00;;;10.60;99.90;;;;;;5048957;28;20075;-86
2023/03/28 11:23:44;;;;;;;0.20;0.15;;;10.50;99.90;;;;;;5046905;28;20055;-86
2023/03/28 11:26:12;;;;;;;0.63;0.13;;;10.50;99.90;;;;;;5045833;28;20136;-87
2023/03/28 11:28:44;;;;;;;0.00;0.00;;;10.70;99.90;;;;;;5045602;28;20495;-86
2023/03/28 11:31:46;;;;;;;0.10;0.10;;;10.90;99.90;;;;;;5047471;28;20053;-87
2023/03/28 11:34:31;;;;;;;0.00;0.00;;;11.10;99.90;;;;;;5044002;28;20088;-87
2023/03/28 11:37:21;;;;;;;0.00;0.00;;;11.30;99.90;;;;;;5047495;28;20072;-86
2023/03/28 11:39:57;;;;;;;0.00;0.00;;;11.30;99.90;;;;;;5045297;28;20139;-86
2023/03/28 11:42:33;;;;;;;0.65;0.50;;;12.50;99.90;;;;;;5047304;28;20052;-87
2023/03/28 11:45:22;;;;;;;0.45;0.45;;;11.60;99.90;;;;;;5046968;28;20533;-88
2023/03/28 11:48:19;;;;;;;0.17;0.15;;;11.70;99.90;;;;;;5046706;28;20125;-87
2023/03/28 11:50:49;;;;;;;0.17;0.17;;;11.90;99.90;;;;;;5051117;28;20472;-87
2023/03/28 11:53:44;;;;;;;1.70;0.45;;;12.10;1.00;;;;;;5049817;28;20053;-86
2023/03/28 11:56:19;;;;;;;0.10;0.10;;;12.00;99.90;;;;;;5047410;28;20044;-86
2023/03/28 11:58:49;;;;;;;0.45;0.43;;;12.00;99.90;;;;;;5046106;28;20053;-86
2023/03/28 12:01:20;;;;;;;0.65;0.45;;;12.40;99.90;;;;;;5046337;28;20060;-86
2023/03/28 12:04:13;;;;;;;0.05;0.05;;;11.90;99.90;;;;;;5044404;28;20063;-86
2023/03/28 12:06:52;;;;;;;0.08;0.08;;;12.00;99.90;;;;;;5044360;28;20112;-86
2023/03/28 12:09:33;;;;;;;0.00;0.00;;;12.00;99.90;;;;;;5046099;28;20523;-87
2023/03/28 12:12:40;;;;;;;0.00;0.00;;;12.00;99.90;;;;;;5045011;28;20055;-86
2023/03/28 12:15:16;;;;;;;0.60;0.20;;;12.00;99.90;;;;;;5044840;28;20057;-86
2023/03/28 12:17:53;;;;;;;0.00;0.00;;;12.20;99.90;;;;;;5050086;28;20549;-86
2023/03/28 12:20:47;;;;;;;0.77;0.77;;;12.40;99.90;;;;;;5064610;28;20055;-86
2023/03/28 12:23:30;;;;;;;0.35;0.20;;;12.60;1.00;;;;;;5064536;28;20119;-87
2023/03/28 12:26:25;;;;;;;0.00;0.00;;;12.80;1.00;;;;;;5066094;28;20041;-86
2023/03/28 12:28:53;;;;;;;0.25;0.25;;;13.10;1.00;;;;;;5034685;28;20053;-86
2023/03/28 12:31:43;;;;;;;0.55;0.08;;;13.00;1.00;;;;;;5050718;28;20094;-86
2023/03/28 12:34:37;;;;;;;0.00;0.00;;;13.00;99.90;;;;;;5050944;28;20402;-86
2023/03/28 12:37:11;;;;;;;0.10;0.10;;;13.00;99.90;;;;;;5048962;28;20115;-86
2023/03/28 12:40:14;;;;;;;0.80;0.63;;;13.00;99.90;;;;;;5047807;28;20111;-86
2023/03/28 12:42:44;;;;;;;0.00;0.00;;;12.90;99.90;;;;;;5042123;28;20095;-86
2023/03/28 12:45:32;;;;;;;0.30;0.30;;;12.70;99.90;;;;;;5043254;28;20220;-86
2023/03/28 12:48:15;;;;;;;0.08;0.00;;;12.50;99.90;;;;;;5038032;28;20068;-86
2023/03/28 12:50:43;;;;;;;0.35;0.35;;;12.60;99.90;;;;;;5043142;28;20052;-86
2023/03/28 12:53:12;;;;;;;0.20;0.20;;;12.80;99.90;;;;;;5042847;28;20474;-86
2023/03/28 12:55:47;;;;;;;0.00;0.00;;;13.50;99.90;;;;;;5044770;28;20048;-86
2023/03/28 12:58:28;;;;;;;0.63;0.25;;;12.50;99.90;;;;;;5045075;28;20048;-86
2023/03/28 13:01:05;;;;;;;0.17;0.17;;;12.30;99.90;;;;;;5044569;28;20410;-86
2023/03/28 13:04:00;;;;;;;1.25;1.15;;;12.20;99.90;;;;;;5041747;28;20122;-86
2023/03/28 13:07:02;;;;;;;0.10;0.10;;;12.30;99.90;;;;;;5044477;28;20183;-87
2023/03/28 13:09:57;;;;;;;0.52;0.25;;;12.20;99.90;;;;;;5044205;28;20483;-86
2023/03/28 13:12:33;;;;;;;0.08;0.05;;;12.40;99.90;;;;;;5039910;28;20063;-87
2023/03/28 13:15:24;;;;;;;0.00;0.00;;;13.40;99.90;;;;;;5040038;28;20061;-87
2023/03/28 13:18:19;;;;;;;0.08;0.08;;;12.00;99.90;;;;;;5044392;28;20474;-87
2023/03/28 13:20:46;;;;;;;0.00;0.00;;;12.40;99.90;;;;;;5059494;28;20512;-87
2023/03/28 13:23:16;;;;;;;2.08;0.77;;;12.30;99.90;;;;;;5059403;28;20119;-87